SCBA/BBA METAR and TAF weather

Enter ICAO airport designator
Station Type Date Time Source
SCBA METAR 2019/10/14 23:00 UTC NOAA

SCBA 142300Z 10007KT CAVOK 11/M09 Q1026


Station Type Date Time Source
SCBA Decoded METAR 2019/10/14 23:00 UTC NOAA

Balmaceda, Chile (SCBA) 45-55S 071-41W 520M
Oct 14, 2019 - 07:00 PM EDT / 2019.10.14 2300 UTC
Wind: from the E (100 degrees) at 8 MPH (7 KT):0
Visibility: greater than 7 mile(s):0
Temperature: 51 F (11 C)
Dew Point: 15 F (-9 C)
Relative Humidity: 23%
Pressure (altimeter): 30.30 in. Hg (1026 hPa)
ob: SCBA 142300Z 10007KT CAVOK 11/M09 Q1026
cycle: 23

Station Type Date Time Source
SCBA TAF 2019/10/14 18:06 UTC NOAA

TAF SCBA 141615Z 1418/1518 11013KT CAVOK TX15/1419Z TNM05/1410Z
BECMG 1422/1424 15010KT
BECMG 1502/1504 15004KT
BECMG 1511/1513 15010KT
BECMG 1514/1515 09015KT 9999 SCT080 BKN200
BECMG 1516/1518 06012KT BKN070 BKN200

Example: see airport list